Time;durP1;ratioP1;P1;durP2;ratioP2;P2;SDS_P1;SDS_P2;PMS_P1;PMS_P2;Temp;Humidity;BMP_temperature;BMP_pressure;BME280_temperature;BME280_humidity;BME280_pressure;Samples;Min_cycle;Max_cycle;Signal;HPM_P1;HPM_P2
2021/12/22 00:01:07;;;;;;;25.10;12.75;;;-1.50;99.90;;;;;;5013435;28;20045;-69
2021/12/22 00:03:33;;;;;;;24.17;14.00;;;-1.40;99.90;;;;;;5031411;28;20037;-68
2021/12/22 00:05:59;;;;;;;22.45;11.70;;;-1.50;99.90;;;;;;5031310;28;20037;-69
2021/12/22 00:08:26;;;;;;;21.52;11.95;;;-1.60;99.90;;;;;;5031342;28;20470;-68
2021/12/22 00:10:52;;;;;;;21.63;11.93;;;-1.70;99.90;;;;;;5033176;28;20048;-69
2021/12/22 00:13:18;;;;;;;22.17;12.32;;;-1.60;99.90;;;;;;5037189;28;20045;-69
2021/12/22 00:15:43;;;;;;;23.88;12.05;;;-1.60;99.90;;;;;;5036946;28;20615;-68
2021/12/22 00:18:09;;;;;;;22.50;11.93;;;-1.60;99.90;;;;;;5040005;28;20048;-69
2021/12/22 00:20:35;;;;;;;23.30;12.73;;;-1.50;99.90;;;;;;5041976;28;20406;-68
2021/12/22 00:23:00;;;;;;;19.88;11.52;;;-1.50;99.90;;;;;;5030960;28;20085;-68
2021/12/22 00:25:26;;;;;;;24.65;13.35;;;-1.50;99.90;;;;;;5032474;28;20513;-68
2021/12/22 00:27:54;;;;;;;19.40;11.18;;;-1.40;99.90;;;;;;5047460;28;20080;-68
2021/12/22 00:30:19;;;;;;;22.77;11.63;;;-1.40;99.90;;;;;;5032157;28;20041;-68
2021/12/22 00:32:51;;;;;;;19.75;11.10;;;-1.50;99.90;;;;;;5031789;28;20040;-68
2021/12/22 00:35:20;;;;;;;23.27;11.25;;;-1.60;99.90;;;;;;5032332;28;20038;-69
2021/12/22 00:37:45;;;;;;;20.05;11.35;;;-1.50;99.90;;;;;;5030635;28;20088;-68
2021/12/22 00:40:11;;;;;;;19.15;10.98;;;-1.50;99.90;;;;;;5014225;28;20516;-69
2021/12/22 00:42:37;;;;;;;19.55;11.00;;;-1.60;99.90;;;;;;5030680;28;20044;-68
2021/12/22 00:45:04;;;;;;;20.80;11.10;;;-1.70;99.90;;;;;;5031867;28;20095;-69
2021/12/22 00:47:31;;;;;;;20.50;11.75;;;-1.80;99.90;;;;;;5031948;28;20453;-69
2021/12/22 00:49:59;;;;;;;20.48;10.65;;;-1.90;99.90;;;;;;5031817;28;20083;-69
2021/12/22 00:52:26;;;;;;;21.20;11.27;;;-1.80;99.90;;;;;;5030413;28;20042;-69
2021/12/22 00:54:51;;;;;;;19.38;11.00;;;-1.70;99.90;;;;;;5031819;28;20037;-69
2021/12/22 00:57:17;;;;;;;19.33;10.75;;;-1.70;99.90;;;;;;5031626;28;20048;-69
2021/12/22 00:59:45;;;;;;;20.92;10.52;;;-1.70;99.90;;;;;;5030380;28;20048;-69
2021/12/22 01:02:13;;;;;;;20.38;11.10;;;-1.80;99.90;;;;;;5030983;28;20049;-68
2021/12/22 01:04:39;;;;;;;19.13;10.23;;;-1.90;99.90;;;;;;5031646;28;20042;-69
2021/12/22 01:07:06;;;;;;;18.98;10.82;;;-1.80;99.90;;;;;;5031460;28;20041;-69
2021/12/22 01:09:33;;;;;;;21.27;12.88;;;-1.90;99.90;;;;;;5030875;28;20041;-68
2021/12/22 01:11:59;;;;;;;22.15;11.38;;;-1.80;99.90;;;;;;5029734;28;20041;-69
2021/12/22 01:14:25;;;;;;;21.48;10.90;;;-1.80;99.90;;;;;;5031550;28;20037;-69
2021/12/22 01:16:55;;;;;;;26.80;12.15;;;-1.90;99.90;;;;;;5030230;28;20048;-68
2021/12/22 01:19:29;;;;;;;16.77;10.40;;;-2.00;99.90;;;;;;5031158;28;20045;-69
2021/12/22 01:22:07;;;;;;;19.20;11.25;;;-2.10;99.90;;;;;;5030837;28;20121;-69
2021/12/22 01:24:34;;;;;;;20.90;11.60;;;-1.90;99.90;;;;;;5050986;28;20045;-69
2021/12/22 01:27:07;;;;;;;19.00;12.45;;;-1.90;99.90;;;;;;5054323;28;20041;-69
2021/12/22 01:29:34;;;;;;;16.73;11.45;;;-1.90;99.90;;;;;;5038291;28;20045;-69
2021/12/22 01:32:02;;;;;;;19.42;11.23;;;-1.90;99.90;;;;;;5030732;28;20052;-69
2021/12/22 01:34:28;;;;;;;19.23;11.48;;;-1.90;99.90;;;;;;5033337;28;20037;-69
2021/12/22 01:36:54;;;;;;;20.95;11.43;;;-2.00;99.90;;;;;;5032636;28;20076;-69
2021/12/22 01:39:20;;;;;;;19.67;11.77;;;-1.90;99.90;;;;;;5037358;28;20067;-70
2021/12/22 01:41:45;;;;;;;17.65;10.93;;;-2.20;99.90;;;;;;5046986;28;20029;-69
2021/12/22 01:44:23;;;;;;;20.55;12.40;;;-2.20;99.90;;;;;;5043900;28;20034;-70
2021/12/22 01:49:50;;;;;;;19.58;11.30;;;-1.90;99.90;;;;;;5031478;28;20045;-69
2021/12/22 01:52:17;;;;;;;20.45;11.52;;;-2.00;99.90;;;;;;5030760;28;20041;-69
2021/12/22 01:55:05;;;;;;;24.27;12.15;;;-2.00;99.90;;;;;;5031288;28;20451;-69
2021/12/22 01:57:33;;;;;;;18.73;11.15;;;-1.90;99.90;;;;;;5031370;28;20098;-69
2021/12/22 02:00:01;;;;;;;21.92;12.50;;;-1.90;99.90;;;;;;5029934;28;20072;-69
2021/12/22 02:02:28;;;;;;;22.05;12.60;;;-2.00;99.90;;;;;;5031246;28;20038;-69
2021/12/22 02:04:53;;;;;;;21.42;11.57;;;-2.20;99.90;;;;;;5029564;28;20049;-69
2021/12/22 02:07:19;;;;;;;20.13;11.35;;;-2.20;99.90;;;;;;5031083;28;20048;-69
2021/12/22 02:10:04;;;;;;;20.15;11.65;;;-2.10;99.90;;;;;;5029446;28;20033;-69
2021/12/22 02:12:35;;;;;;;25.88;11.88;;;-2.10;99.90;;;;;;5030940;28;20044;-68
2021/12/22 02:15:04;;;;;;;21.70;12.63;;;-2.10;99.90;;;;;;5046229;28;20044;-69
2021/12/22 02:17:29;;;;;;;21.08;11.55;;;-2.20;99.90;;;;;;5031048;28;20498;-69
2021/12/22 02:19:55;;;;;;;24.48;12.05;;;-2.30;99.90;;;;;;5030406;28;20112;-69
2021/12/22 02:22:21;;;;;;;19.77;11.95;;;-2.40;99.90;;;;;;5030648;28;20091;-69
2021/12/22 02:24:54;;;;;;;23.45;11.98;;;-2.40;99.90;;;;;;5030804;28;20112;-69
2021/12/22 02:27:30;;;;;;;19.65;11.52;;;-2.30;99.90;;;;;;5030728;28;20056;-69
2021/12/22 02:30:00;;;;;;;20.58;12.75;;;-2.20;99.90;;;;;;5030908;28;20401;-69
2021/12/22 02:35:11;;;;;;;20.48;11.30;;;-2.40;99.90;;;;;;5033034;28;20052;-69
2021/12/22 02:37:43;;;;;;;24.35;12.52;;;-2.30;99.90;;;;;;5033053;28;20494;-68
2021/12/22 02:40:14;;;;;;;27.05;12.85;;;-2.30;99.90;;;;;;5016764;28;20085;-69
2021/12/22 02:42:41;;;;;;;23.52;13.30;;;-2.40;99.90;;;;;;5034122;28;20084;-70
2021/12/22 02:45:07;;;;;;;24.40;12.73;;;-2.50;99.90;;;;;;5034130;28;20041;-69
2021/12/22 02:47:33;;;;;;;21.65;11.93;;;-2.50;99.90;;;;;;5034541;28;20383;-70
2021/12/22 02:49:58;;;;;;;30.38;14.13;;;-2.40;99.90;;;;;;5034193;28;20120;-70
2021/12/22 02:52:31;;;;;;;25.55;13.52;;;-2.50;99.90;;;;;;5033943;28;20049;-70
2021/12/22 02:54:57;;;;;;;;;;;-2.60;99.90;;;;;;5033424;28;20041;-70
2021/12/22 02:57:31;;;;;;;26.23;13.65;;;-2.40;99.90;;;;;;5032769;28;19921;-70
2021/12/22 03:05:06;;;;;;;25.27;13.27;;;-2.60;99.90;;;;;;5037468;28;20506;-70
2021/12/22 03:07:32;;;;;;;24.35;13.20;;;-2.50;99.90;;;;;;5059700;28;20038;-71
2021/12/22 03:10:07;;;;;;;24.73;13.35;;;-2.40;99.90;;;;;;5057783;28;20029;-71
2021/12/22 03:12:35;;;;;;;24.45;12.18;;;-2.60;99.90;;;;;;5051306;28;20037;-70
2021/12/22 03:15:04;;;;;;;21.77;13.25;;;-2.60;99.90;;;;;;5051016;28;20049;-71
2021/12/22 03:17:30;;;;;;;29.42;14.25;;;-2.70;99.90;;;;;;5038667;28;20041;-70
2021/12/22 03:19:56;;;;;;;24.63;13.80;;;-2.60;99.90;;;;;;5034508;28;20056;-70
2021/12/22 03:22:22;;;;;;;25.65;12.95;;;-2.70;99.90;;;;;;5034094;28;20076;-71
2021/12/22 03:24:50;;;;;;;25.10;14.80;;;-2.60;99.90;;;;;;5032723;28;20056;-70
2021/12/22 03:27:15;;;;;;;25.27;14.63;;;-2.70;99.90;;;;;;5032494;28;20122;-70
2021/12/22 03:29:41;;;;;;;25.58;13.93;;;-2.70;99.90;;;;;;5033627;28;20137;-70
2021/12/22 03:32:08;;;;;;;27.02;13.20;;;-2.70;99.90;;;;;;5032030;28;20527;-70
2021/12/22 03:34:34;;;;;;;27.20;13.43;;;-2.70;99.90;;;;;;5033587;28;20118;-70
2021/12/22 03:36:59;;;;;;;26.40;14.73;;;-2.60;99.90;;;;;;5033461;28;20176;-71
2021/12/22 03:39:27;;;;;;;25.40;12.95;;;-2.60;99.90;;;;;;5033170;28;20040;-71
2021/12/22 03:41:52;;;;;;;24.75;13.77;;;-2.60;99.90;;;;;;5033235;28;20038;-70
2021/12/22 03:44:18;;;;;;;24.60;13.07;;;-2.50;99.90;;;;;;5032118;28;20052;-70
2021/12/22 03:46:44;;;;;;;30.52;14.52;;;-2.50;99.90;;;;;;5032730;28;20037;-70
2021/12/22 03:49:12;;;;;;;26.88;13.45;;;-2.50;99.90;;;;;;5032000;28;20041;-70
2021/12/22 03:51:38;;;;;;;28.05;14.20;;;-2.50;99.90;;;;;;5031903;28;20073;-70
2021/12/22 03:54:05;;;;;;;27.48;14.45;;;-2.40;99.90;;;;;;5032999;28;20087;-70
2021/12/22 03:56:31;;;;;;;33.92;14.25;;;-2.40;99.90;;;;;;5031655;28;20049;-70
2021/12/22 03:58:56;;;;;;;25.23;14.23;;;-2.40;99.90;;;;;;5031954;28;20444;-70
2021/12/22 04:01:22;;;;;;;27.30;13.80;;;-2.50;99.90;;;;;;5032809;28;20049;-70
2021/12/22 04:03:52;;;;;;;26.50;13.65;;;-2.50;99.90;;;;;;5031254;28;20077;-70
2021/12/22 04:06:17;;;;;;;24.08;13.20;;;-2.40;99.90;;;;;;5032687;28;20108;-70
2021/12/22 04:08:43;;;;;;;28.27;13.32;;;-2.50;99.90;;;;;;5031359;28;20547;-70
2021/12/22 04:11:08;;;;;;;27.95;13.10;;;-2.40;99.90;;;;;;5032867;28;20088;-71
2021/12/22 04:13:34;;;;;;;26.48;13.85;;;-2.50;99.90;;;;;;5032469;28;20077;-70
2021/12/22 04:15:59;;;;;;;25.83;13.02;;;-2.70;99.90;;;;;;5032608;28;20047;-71
2021/12/22 04:18:25;;;;;;;27.50;13.10;;;-2.70;99.90;;;;;;5032390;28;20037;-70
2021/12/22 04:20:51;;;;;;;29.85;14.25;;;-2.80;99.90;;;;;;5032763;28;20077;-70
2021/12/22 04:23:16;;;;;;;27.00;13.40;;;-2.80;99.90;;;;;;5031091;28;20049;-70
2021/12/22 04:25:42;;;;;;;24.10;13.43;;;-2.60;99.90;;;;;;5032561;28;20548;-71
2021/12/22 04:28:10;;;;;;;27.48;14.20;;;-2.70;99.90;;;;;;5032220;28;20497;-70
2021/12/22 04:30:42;;;;;;;24.13;13.15;;;-2.80;99.90;;;;;;5032429;28;20045;-70
2021/12/22 04:33:08;;;;;;;22.98;13.13;;;-2.80;99.90;;;;;;5032282;28;20049;-70
2021/12/22 04:35:34;;;;;;;24.55;14.45;;;-2.80;99.90;;;;;;5032834;28;20482;-70
2021/12/22 04:38:00;;;;;;;24.42;13.10;;;-2.90;99.90;;;;;;5036767;28;20037;-71
2021/12/22 04:40:26;;;;;;;25.55;13.25;;;-3.00;99.90;;;;;;5048486;28;20041;-71
2021/12/22 04:42:52;;;;;;;24.38;13.38;;;-2.90;99.90;;;;;;5042721;28;20052;-70
2021/12/22 04:45:18;;;;;;;23.52;13.27;;;-2.90;99.90;;;;;;5031065;28;20041;-70
2021/12/22 04:47:44;;;;;;;25.92;13.48;;;-3.00;99.90;;;;;;5035640;28;20037;-70
2021/12/22 04:50:17;;;;;;;24.73;12.52;;;-3.00;99.90;;;;;;5074183;28;20089;-70
2021/12/22 04:53:22;;;;;;;28.52;13.68;;;-2.90;99.90;;;;;;5057154;28;20032;-71
2021/12/22 04:55:37;;;;;;;24.80;13.43;;;-2.90;99.90;;;;;;5035506;28;20049;-70
2021/12/22 04:58:03;;;;;;;27.52;14.02;;;-2.90;99.90;;;;;;5032081;28;20033;-70
2021/12/22 05:00:31;;;;;;;24.40;13.40;;;-3.10;99.90;;;;;;5034259;28;20152;-70
2021/12/22 05:02:58;;;;;;;28.05;14.35;;;-3.10;99.90;;;;;;5032045;28;20044;-70
2021/12/22 05:05:24;;;;;;;28.02;13.88;;;-3.10;99.90;;;;;;5035866;28;20064;-70
2021/12/22 05:07:50;;;;;;;29.70;13.20;;;-3.00;99.90;;;;;;5034505;28;20041;-70
2021/12/22 05:10:17;;;;;;;27.75;13.10;;;-3.00;99.90;;;;;;5035624;28;20067;-70
2021/12/22 05:12:44;;;;;;;29.88;13.82;;;-3.00;99.90;;;;;;5034330;28;20048;-70
2021/12/22 05:15:10;;;;;;;30.50;14.05;;;-3.10;99.90;;;;;;5033658;28;20042;-70
2021/12/22 05:20:09;;;;;;;29.85;14.13;;;-3.10;99.90;;;;;;5034444;28;20159;-70
2021/12/22 05:22:34;;;;;;;24.73;13.35;;;-3.10;99.90;;;;;;5032330;28;20508;-70
2021/12/22 05:25:02;;;;;;;24.05;12.68;;;-3.00;99.90;;;;;;5031532;28;20073;-70
2021/12/22 05:27:28;;;;;;;24.23;13.98;;;-3.00;99.90;;;;;;5031484;28;20478;-70
2021/12/22 05:29:54;;;;;;;29.08;13.35;;;-3.00;99.90;;;;;;5030321;28;20045;-70
2021/12/22 05:32:22;;;;;;;26.17;12.88;;;-3.00;99.90;;;;;;5029939;28;20171;-70
2021/12/22 05:34:48;;;;;;;27.35;13.25;;;-3.00;99.90;;;;;;5031225;28;20041;-71
2021/12/22 05:37:13;;;;;;;22.88;12.27;;;-3.00;99.90;;;;;;5029920;28;20050;-70
2021/12/22 05:39:39;;;;;;;25.20;13.02;;;-2.90;99.90;;;;;;5030475;28;20055;-70
2021/12/22 05:42:05;;;;;;;23.48;12.10;;;-3.00;99.90;;;;;;5031034;28;20034;-70
2021/12/22 05:44:30;;;;;;;28.30;12.30;;;-3.00;99.90;;;;;;5029825;28;20037;-70
2021/12/22 05:46:56;;;;;;;32.78;13.77;;;-3.00;99.90;;;;;;5030179;28;20084;-70
2021/12/22 05:49:21;;;;;;;26.45;12.57;;;-3.10;99.90;;;;;;5031063;28;20045;-70
2021/12/22 05:51:47;;;;;;;26.77;12.98;;;-3.20;99.90;;;;;;5029478;28;20045;-70
2021/12/22 05:54:12;;;;;;;26.98;13.20;;;-3.10;99.90;;;;;;5013593;28;20069;-71
2021/12/22 05:56:38;;;;;;;27.67;12.63;;;-3.10;99.90;;;;;;5029977;28;20077;-71
2021/12/22 05:59:04;;;;;;;25.90;12.68;;;-3.00;99.90;;;;;;5029664;28;20095;-71
2021/12/22 06:01:30;;;;;;;28.08;12.85;;;-2.90;99.90;;;;;;5030867;28;20524;-71
2021/12/22 06:03:57;;;;;;;22.50;12.02;;;-3.10;99.90;;;;;;5029244;28;20038;-71
2021/12/22 06:06:22;;;;;;;23.02;13.13;;;-3.10;99.90;;;;;;5031460;28;20040;-71
2021/12/22 06:08:48;;;;;;;20.65;11.13;;;-3.20;99.90;;;;;;5032699;28;20410;-71
2021/12/22 06:11:13;;;;;;;26.35;12.07;;;-3.10;99.90;;;;;;5042743;28;20045;-71
2021/12/22 06:13:39;;;;;;;27.85;12.55;;;-3.20;99.90;;;;;;5053378;28;20041;-71
2021/12/22 06:16:05;;;;;;;29.33;13.15;;;-3.10;99.90;;;;;;5048565;28;20512;-71
2021/12/22 06:18:31;;;;;;;25.90;12.90;;;-3.00;99.90;;;;;;5036992;28;20126;-71
2021/12/22 06:20:58;;;;;;;22.08;12.43;;;-3.20;99.90;;;;;;5034081;28;20466;-71
2021/12/22 06:23:23;;;;;;;24.17;12.40;;;-3.20;99.90;;;;;;5034509;28;20087;-71
2021/12/22 06:25:49;;;;;;;23.65;12.55;;;-3.20;99.90;;;;;;5033766;28;20045;-71
2021/12/22 06:28:14;;;;;;;27.67;12.15;;;-3.20;99.90;;;;;;5033523;28;20038;-71
2021/12/22 06:30:40;;;;;;;24.65;12.82;;;-3.10;99.90;;;;;;5035357;28;20037;-71
2021/12/22 06:33:06;;;;;;;24.15;12.82;;;-3.20;99.90;;;;;;5034888;28;20040;-71
2021/12/22 06:35:31;;;;;;;22.40;12.52;;;-3.20;99.90;;;;;;5049469;28;20088;-71
2021/12/22 06:37:57;;;;;;;27.27;13.13;;;-3.20;99.90;;;;;;5060149;28;20057;-73
2021/12/22 06:40:22;;;;;;;24.85;13.73;;;-3.10;99.90;;;;;;5058750;28;20057;-72
2021/12/22 06:42:48;;;;;;;20.85;11.43;;;-3.10;99.90;;;;;;5036100;28;20037;-71
2021/12/22 06:45:14;;;;;;;26.77;12.98;;;-3.10;99.90;;;;;;5035313;28;20049;-71
2021/12/22 06:47:41;;;;;;;25.50;12.27;;;-3.20;99.90;;;;;;5033657;28;20107;-71
2021/12/22 06:50:08;;;;;;;26.13;12.63;;;-3.20;99.90;;;;;;5033241;28;20084;-71
2021/12/22 06:52:34;;;;;;;30.73;12.75;;;-3.10;99.90;;;;;;5032909;28;20037;-71
2021/12/22 06:54:59;;;;;;;23.92;12.45;;;-3.00;99.90;;;;;;5034602;28;20562;-71
2021/12/22 06:57:25;;;;;;;26.00;12.80;;;-3.00;99.90;;;;;;5032640;28;20375;-71
2021/12/22 06:59:51;;;;;;;24.85;12.52;;;-2.90;99.90;;;;;;5034419;28;20116;-71
2021/12/22 07:02:16;;;;;;;22.58;11.55;;;-3.00;99.90;;;;;;5033679;28;20041;-71
2021/12/22 07:04:42;;;;;;;20.95;11.30;;;-3.00;99.90;;;;;;5034056;28;20041;-71
2021/12/22 07:07:08;;;;;;;25.15;12.25;;;-3.00;99.90;;;;;;5032808;28;20049;-71
2021/12/22 07:09:34;;;;;;;24.77;12.18;;;-2.90;99.90;;;;;;5016084;28;20505;-71
2021/12/22 07:11:59;;;;;;;24.75;11.95;;;-3.10;99.90;;;;;;5032290;28;20056;-71
2021/12/22 07:14:25;;;;;;;25.65;12.45;;;-3.20;99.90;;;;;;5032722;28;20049;-71
2021/12/22 07:16:51;;;;;;;23.30;12.27;;;-3.20;99.90;;;;;;5034160;28;20045;-71
2021/12/22 07:19:17;;;;;;;27.08;12.25;;;-3.20;99.90;;;;;;5032088;28;20053;-71
2021/12/22 07:21:44;;;;;;;21.30;11.80;;;-3.20;99.90;;;;;;5028485;28;20046;-72
2021/12/22 07:24:09;;;;;;;23.77;11.98;;;-3.30;99.90;;;;;;5012838;28;20410;-71
2021/12/22 07:26:37;;;;;;;25.83;12.55;;;-3.20;99.90;;;;;;5013881;28;20041;-71
2021/12/22 07:29:04;;;;;;;23.83;11.60;;;-3.30;99.90;;;;;;5015382;28;20122;-71
2021/12/22 07:31:30;;;;;;;26.05;11.68;;;-3.40;99.90;;;;;;5014140;28;20046;-70
2021/12/22 07:34:10;;;;;;;23.85;12.23;;;-3.40;99.90;;;;;;5015290;28;20053;-71
2021/12/22 07:36:42;;;;;;;24.55;11.90;;;-3.30;99.90;;;;;;5014055;28;20637;-70
2021/12/22 07:39:07;;;;;;;26.50;13.05;;;-3.20;99.90;;;;;;5015417;28;20102;-69
2021/12/22 07:41:33;;;;;;;26.05;12.80;;;-3.30;99.90;;;;;;5013328;28;20046;-68
2021/12/22 07:43:59;;;;;;;26.42;12.32;;;-3.30;99.90;;;;;;5015999;28;20498;-69
2021/12/22 07:46:24;;;;;;;21.85;11.57;;;-3.30;99.90;;;;;;5017741;28;20461;-69
2021/12/22 07:48:53;;;;;;;29.45;12.52;;;-3.30;99.90;;;;;;5013505;28;20064;-68
2021/12/22 07:51:18;;;;;;;24.77;12.52;;;-3.30;99.90;;;;;;5013796;28;20482;-69
2021/12/22 07:53:44;;;;;;;27.58;12.23;;;-3.20;99.90;;;;;;5011991;28;20045;-69
2021/12/22 07:56:10;;;;;;;21.30;11.43;;;-3.20;99.90;;;;;;5013832;28;20065;-70
2021/12/22 07:58:36;;;;;;;28.73;12.25;;;-3.20;99.90;;;;;;5013112;28;20042;-72
2021/12/22 08:01:01;;;;;;;24.73;12.25;;;-3.10;99.90;;;;;;5013182;28;20490;-70
2021/12/22 08:03:27;;;;;;;26.00;12.02;;;-3.10;99.90;;;;;;5011718;28;20042;-70
2021/12/22 08:05:53;;;;;;;24.63;12.85;;;-3.20;99.90;;;;;;5012957;28;20121;-69
2021/12/22 08:08:19;;;;;;;22.48;12.63;;;-3.10;99.90;;;;;;5012387;28;20030;-70
2021/12/22 08:10:48;;;;;;;22.45;12.73;;;-3.10;99.90;;;;;;5011844;28;20116;-70
2021/12/22 08:13:15;;;;;;;22.38;12.23;;;-3.10;99.90;;;;;;5016980;28;20042;-71
2021/12/22 08:15:41;;;;;;;22.45;13.02;;;-3.00;99.90;;;;;;5012938;28;20509;-74
2021/12/22 08:18:07;;;;;;;24.23;11.73;;;-3.00;99.90;;;;;;5031436;28;20026;-72
2021/12/22 08:20:33;;;;;;;23.42;11.90;;;-2.90;99.90;;;;;;5056514;28;20036;-71
2021/12/22 08:22:58;;;;;;;22.75;11.18;;;-2.80;99.90;;;;;;5052377;28;20081;-71
2021/12/22 08:25:24;;;;;;;19.25;11.23;;;-2.90;99.90;;;;;;5058181;28;20132;-72
2021/12/22 08:27:50;;;;;;;23.92;11.73;;;-2.90;99.90;;;;;;5039096;28;20413;-70
2021/12/22 08:30:16;;;;;;;22.80;11.50;;;-2.80;99.90;;;;;;5036951;28;20124;-70
2021/12/22 08:32:41;;;;;;;26.55;12.45;;;-2.80;99.90;;;;;;5036260;28;20468;-71
2021/12/22 08:35:09;;;;;;;22.35;12.40;;;-2.80;99.90;;;;;;5036147;28;20041;-71
2021/12/22 08:40:21;;;;;;;22.67;12.32;;;-2.80;99.90;;;;;;5037358;28;20406;-70
2021/12/22 08:42:47;;;;;;;24.63;13.15;;;-2.80;99.90;;;;;;5019163;28;20048;-70
2021/12/22 08:45:14;;;;;;;28.77;12.90;;;-2.80;99.90;;;;;;5036363;28;20041;-70
2021/12/22 08:47:39;;;;;;;31.30;12.63;;;-2.80;99.90;;;;;;5036470;28;20087;-71
2021/12/22 08:50:07;;;;;;;28.10;13.18;;;-2.70;99.90;;;;;;5036343;28;20479;-71
2021/12/22 08:52:33;;;;;;;26.38;12.38;;;-2.70;99.90;;;;;;5034693;28;20116;-70
2021/12/22 08:54:59;;;;;;;28.80;12.43;;;-2.60;99.90;;;;;;5051853;28;20801;-70
2021/12/22 08:57:24;;;;;;;27.80;12.93;;;-2.70;99.90;;;;;;5036504;28;20421;-70
2021/12/22 08:59:51;;;;;;;25.90;12.77;;;-2.60;99.90;;;;;;5034668;28;20041;-71
2021/12/22 09:02:17;;;;;;;22.95;13.35;;;-2.50;99.90;;;;;;5034470;28;20038;-70
2021/12/22 09:04:42;;;;;;;25.92;13.52;;;-2.50;99.90;;;;;;5018302;28;20037;-71
2021/12/22 09:07:08;;;;;;;26.48;12.63;;;-2.50;99.90;;;;;;5036587;28;20052;-70
2021/12/22 09:09:34;;;;;;;28.30;13.90;;;-2.40;99.90;;;;;;5036990;28;20043;-70
2021/12/22 09:12:00;;;;;;;30.27;13.63;;;-2.40;99.90;;;;;;5035691;28;20115;-70
2021/12/22 09:14:25;;;;;;;28.20;13.68;;;-2.30;99.90;;;;;;5036156;28;20052;-70
2021/12/22 09:16:51;;;;;;;32.70;14.48;;;-2.30;99.90;;;;;;5036132;28;20049;-71
2021/12/22 09:19:17;;;;;;;33.92;13.50;;;-2.30;99.90;;;;;;5034885;28;20402;-71
2021/12/22 09:21:43;;;;;;;27.90;14.48;;;-2.30;99.90;;;;;;5035212;28;20045;-69
2021/12/22 09:24:09;;;;;;;26.45;13.27;;;-2.20;99.90;;;;;;5036707;28;20041;-70
2021/12/22 09:26:35;;;;;;;32.72;13.88;;;-2.20;99.90;;;;;;5035693;28;20119;-70
2021/12/22 09:29:03;;;;;;;33.08;14.63;;;-2.20;99.90;;;;;;5034300;28;20033;-70
2021/12/22 09:31:29;;;;;;;28.65;13.30;;;-2.20;99.90;;;;;;5051084;28;20041;-71
2021/12/22 09:33:55;;;;;;;27.23;14.63;;;-2.20;99.90;;;;;;5034599;28;20517;-70
2021/12/22 09:36:21;;;;;;;28.63;13.32;;;-2.20;99.90;;;;;;5018081;28;20494;-71
2021/12/22 09:38:46;;;;;;;25.20;12.25;;;-2.20;99.90;;;;;;5033702;28;20052;-70
2021/12/22 09:41:13;;;;;;;27.48;13.93;;;-2.20;99.90;;;;;;5034119;28;20045;-70
2021/12/22 09:43:39;;;;;;;28.77;13.32;;;-2.10;99.90;;;;;;5035084;28;20034;-71
2021/12/22 09:46:09;;;;;;;26.92;13.05;;;-2.10;99.90;;;;;;5034295;28;20141;-71
2021/12/22 09:53:51;;;;;;;28.33;14.75;;;-2.00;99.90;;;;;;5054951;28;20067;-70
2021/12/22 09:56:20;;;;;;;28.20;13.63;;;-2.00;99.90;;;;;;5021035;28;20060;-70
2021/12/22 09:58:46;;;;;;;23.40;13.30;;;-1.90;99.90;;;;;;5037306;28;20052;-70
2021/12/22 10:01:17;;;;;;;24.75;13.57;;;-2.00;99.90;;;;;;5036076;28;20037;-70
2021/12/22 10:03:43;;;;;;;25.35;13.45;;;-1.90;99.90;;;;;;5035475;28;20033;-70
2021/12/22 10:06:08;;;;;;;26.95;13.65;;;-1.80;99.90;;;;;;5034134;28;20099;-71
2021/12/22 10:08:39;;;;;;;28.48;15.05;;;-1.80;99.90;;;;;;5033864;28;20037;-70
2021/12/22 10:11:09;;;;;;;27.15;14.52;;;-1.80;99.90;;;;;;5034873;28;20143;-71
2021/12/22 10:13:39;;;;;;;24.35;13.32;;;-1.70;99.90;;;;;;5034368;28;20052;-71
2021/12/22 10:16:15;;;;;;;28.90;13.70;;;-1.70;99.90;;;;;;5033943;28;20045;-71
2021/12/22 10:18:41;;;;;;;27.45;13.80;;;-1.70;99.90;;;;;;5017890;28;20415;-71
2021/12/22 10:21:14;;;;;;;26.48;13.60;;;-1.60;99.90;;;;;;5050856;28;20045;-71
2021/12/22 10:23:46;;;;;;;28.35;13.95;;;-1.60;99.90;;;;;;5017050;28;20037;-71
2021/12/22 10:26:16;;;;;;;28.52;14.15;;;-1.50;99.90;;;;;;5034508;28;20037;-71
2021/12/22 10:28:49;;;;;;;31.08;14.18;;;-1.40;99.90;;;;;;5034169;28;20041;-71
2021/12/22 10:31:16;;;;;;;29.40;13.45;;;-1.30;99.90;;;;;;5019153;28;20101;-71
2021/12/22 10:33:43;;;;;;;26.13;13.50;;;-1.30;99.90;;;;;;5036002;28;20103;-71
2021/12/22 10:36:15;;;;;;;28.48;13.90;;;-1.20;99.90;;;;;;5034107;28;20514;-71
2021/12/22 10:38:59;;;;;;;25.08;13.25;;;-1.20;99.90;;;;;;5033806;28;20053;-71
2021/12/22 10:41:30;;;;;;;28.75;13.52;;;-1.10;99.90;;;;;;5034166;28;20037;-71
2021/12/22 10:43:56;;;;;;;25.73;13.10;;;-1.00;99.90;;;;;;5035449;28;20050;-71
2021/12/22 10:46:25;;;;;;;24.55;12.70;;;-1.10;99.90;;;;;;5033886;28;20064;-71
2021/12/22 10:49:20;;;;;;;25.10;13.43;;;-1.10;99.90;;;;;;5033983;28;20045;-71
2021/12/22 10:51:50;;;;;;;26.92;13.68;;;-1.00;99.90;;;;;;5034035;28;20482;-70
2021/12/22 10:54:17;;;;;;;27.10;14.15;;;-1.00;99.90;;;;;;5026253;28;20049;-71
2021/12/22 10:56:47;;;;;;;27.25;13.40;;;-1.00;99.90;;;;;;5019148;28;20128;-71
2021/12/22 10:59:20;;;;;;;23.00;12.23;;;-0.90;99.90;;;;;;5017559;28;20042;-71
2021/12/22 11:01:56;;;;;;;25.50;13.35;;;-0.80;99.90;;;;;;5018296;28;20068;-71
2021/12/22 11:04:27;;;;;;;28.33;12.80;;;-0.80;99.90;;;;;;5000990;28;20736;-71
2021/12/22 11:06:56;;;;;;;27.27;14.15;;;-0.70;99.90;;;;;;5018080;28;20391;-71
2021/12/22 11:09:23;;;;;;;27.75;13.32;;;-0.70;99.90;;;;;;5017880;28;20720;-71
2021/12/22 11:11:57;;;;;;;24.70;13.52;;;-0.70;99.90;;;;;;5018845;28;20038;-71
2021/12/22 11:14:37;;;;;;;25.98;13.43;;;-0.60;99.90;;;;;;5017648;28;20041;-71
2021/12/22 11:17:12;;;;;;;24.33;12.90;;;-0.60;99.90;;;;;;5019828;28;20113;-71
2021/12/22 11:20:03;;;;;;;22.92;12.75;;;-0.60;99.90;;;;;;5020864;28;20041;-72
2021/12/22 11:22:50;;;;;;;28.08;13.40;;;-0.60;99.90;;;;;;5009702;28;20046;-71
2021/12/22 11:25:16;;;;;;;28.75;11.98;;;-0.50;99.90;;;;;;5023005;28;20034;-71
2021/12/22 11:27:42;;;;;;;25.40;12.98;;;-0.50;99.90;;;;;;5019558;28;20107;-71
2021/12/22 11:30:09;;;;;;;21.75;11.70;;;-0.40;99.90;;;;;;5018409;28;20046;-71
2021/12/22 11:32:34;;;;;;;25.80;12.93;;;-0.40;99.90;;;;;;5020441;28;20045;-71
2021/12/22 11:35:04;;;;;;;24.98;12.85;;;-0.40;99.90;;;;;;5019909;28;20041;-71
2021/12/22 11:37:30;;;;;;;22.95;12.90;;;-0.40;99.90;;;;;;5019698;28;20095;-71
2021/12/22 11:39:57;;;;;;;24.45;11.75;;;-0.30;99.90;;;;;;5019654;28;20101;-71
2021/12/22 11:42:29;;;;;;;24.73;13.23;;;-0.30;99.90;;;;;;5019099;28;20041;-71
2021/12/22 11:45:04;;;;;;;27.75;12.60;;;-0.30;99.90;;;;;;5000505;28;20037;-70
2021/12/22 11:47:35;;;;;;;24.90;13.48;;;-0.30;99.90;;;;;;5017095;28;20096;-71
2021/12/22 11:50:03;;;;;;;22.95;11.85;;;-0.20;99.90;;;;;;5015411;28;20045;-70
2021/12/22 11:52:36;;;;;;;20.88;11.55;;;-0.20;99.90;;;;;;4995219;28;20120;-70
2021/12/22 11:55:22;;;;;;;23.48;11.90;;;-0.20;99.90;;;;;;5013179;28;20459;-71
2021/12/22 11:57:50;;;;;;;24.73;12.38;;;-0.20;99.90;;;;;;5011724;28;20034;-70
2021/12/22 12:00:25;;;;;;;24.42;11.93;;;-0.20;99.90;;;;;;4995650;28;20033;-70
2021/12/22 12:02:52;;;;;;;27.08;12.73;;;-0.20;99.90;;;;;;5011498;28;20498;-70
2021/12/22 12:05:24;;;;;;;22.40;11.60;;;-0.10;99.90;;;;;;5019387;28;20494;-70
2021/12/22 12:07:55;;;;;;;20.52;11.23;;;-0.10;99.90;;;;;;5021306;28;20146;-70
2021/12/22 12:10:33;;;;;;;25.43;10.97;;;-0.10;99.90;;;;;;5020688;28;20073;-70
2021/12/22 12:13:05;;;;;;;23.30;11.27;;;-0.10;99.90;;;;;;5019558;28;20288;-70
2021/12/22 12:21:54;;;;;;;22.85;11.70;;;0.10;99.90;;;;;;5020277;28;20410;-70
2021/12/22 12:24:42;;;;;;;20.52;12.10;;;0.10;99.90;;;;;;5020480;28;20041;-71
2021/12/22 12:27:31;;;;;;;24.27;12.05;;;0.10;99.90;;;;;;5023705;28;20049;-71
2021/12/22 12:29:58;;;;;;;26.70;12.00;;;0.10;99.90;;;;;;5025980;28;20410;-70
2021/12/22 12:32:39;;;;;;;24.70;11.45;;;0.20;99.90;;;;;;5019783;28;20402;-71
2021/12/22 12:35:19;;;;;;;21.23;12.02;;;0.20;99.90;;;;;;5026257;28;20110;-70
2021/12/22 12:38:17;;;;;;;26.52;11.95;;;0.20;99.90;;;;;;5032120;28;20045;-71
2021/12/22 12:40:55;;;;;;;24.60;12.77;;;0.20;99.90;;;;;;5030788;28;20033;-70
2021/12/22 12:43:42;;;;;;;22.85;11.90;;;0.30;99.90;;;;;;5031775;28;20045;-71
2021/12/22 12:46:20;;;;;;;23.52;12.15;;;0.40;99.90;;;;;;5032053;28;20049;-70
2021/12/22 12:48:52;;;;;;;26.65;12.75;;;0.40;99.90;;;;;;5015451;28;20489;-70
2021/12/22 12:51:20;;;;;;;26.77;12.00;;;0.40;99.90;;;;;;5032642;28;20037;-71
2021/12/22 12:53:50;;;;;;;25.55;12.48;;;0.40;99.90;;;;;;5031760;28;20048;-71
2021/12/22 12:56:18;;;;;;;21.48;13.05;;;0.40;99.90;;;;;;5030592;28;20541;-71
2021/12/22 12:58:57;;;;;;;24.88;12.05;;;0.40;99.90;;;;;;5031860;28;20044;-70
2021/12/22 13:01:50;;;;;;;25.88;11.98;;;0.40;99.90;;;;;;5030455;28;20037;-71